Time;durP1;ratioP1;P1;durP2;ratioP2;P2;SDS_P1;SDS_P2;PMS_P1;PMS_P2;Temp;Humidity;BMP_temperature;BMP_pressure;BME280_temperature;BME280_humidity;BME280_pressure;Samples;Min_cycle;Max_cycle;Signal;HPM_P1;HPM_P2
2023/04/11 00:00:06;;;;;;;20.30;3.05;;;;;;;;;;5032559;28;20025;-72
2023/04/11 00:02:33;;;;;;;13.23;1.67;;;;;;;;;;5032538;28;20029;-73
2023/04/11 00:05:00;;;;;;;10.75;1.45;;;;;;;;;;5032361;28;20038;-73
2023/04/11 00:07:26;;;;;;;3.75;1.08;;;;;;;;;;5032365;28;20033;-72
2023/04/11 00:09:52;;;;;;;12.10;1.77;;;;;;;;;;5031256;28;20032;-72
2023/04/11 00:12:18;;;;;;;13.35;2.22;;;;;;;;;;5032202;28;20025;-71
2023/04/11 00:14:47;;;;;;;13.55;2.08;;;;;;;;;;5032235;28;20374;-72
2023/04/11 00:17:14;;;;;;;14.98;1.80;;;;;;;;;;5032151;28;20029;-72
2023/04/11 00:19:42;;;;;;;11.93;1.77;;;;;;;;;;5032145;28;20026;-71
2023/04/11 00:22:09;;;;;;;11.07;1.77;;;;;;;;;;5032175;28;20029;-72
2023/04/11 00:24:35;;;;;;;10.20;1.80;;;;;;;;;;5031933;28;20032;-75
2023/04/11 00:27:01;;;;;;;7.25;1.38;;;;;;;;;;5031893;28;20557;-73
2023/04/11 00:29:27;;;;;;;10.60;1.88;;;;;;;;;;5032005;28;20032;-73
2023/04/11 00:31:55;;;;;;;12.30;2.70;;;;;;;;;;5032476;28;20025;-75
2023/04/11 00:34:21;;;;;;;12.05;1.90;;;;;;;;;;5031960;28;20018;-75
2023/04/11 00:36:48;;;;;;;5.05;1.00;;;;;;;;;;5031869;28;20087;-75
2023/04/11 00:39:17;;;;;;;12.57;1.73;;;;;;;;;;5031802;28;20033;-74
2023/04/11 00:41:43;;;;;;;6.32;1.35;;;;;;;;;;5031584;28;20079;-74
2023/04/11 00:44:10;;;;;;;13.18;1.70;;;;;;;;;;5031737;28;20083;-75
2023/04/11 00:46:36;;;;;;;11.75;2.08;;;;;;;;;;5031658;28;20413;-74
2023/04/11 00:49:02;;;;;;;8.40;2.00;;;;;;;;;;5031500;28;20048;-75
2023/04/11 00:51:28;;;;;;;17.17;2.25;;;;;;;;;;5031492;28;20030;-73
2023/04/11 00:53:54;;;;;;;8.63;2.05;;;;;;;;;;5031698;28;20159;-74
2023/04/11 00:56:21;;;;;;;15.68;2.30;;;;;;;;;;5031547;28;20041;-75
2023/04/11 00:58:47;;;;;;;6.25;1.77;;;;;;;;;;5031352;28;20020;-75
2023/04/11 01:01:15;;;;;;;10.77;2.03;;;;;;;;;;5031538;28;20028;-75
2023/04/11 01:03:43;;;;;;;8.70;1.52;;;;;;;;;;5031372;28;20382;-75
2023/04/11 01:06:10;;;;;;;9.40;1.25;;;;;;;;;;5031427;28;20026;-75
2023/04/11 01:08:37;;;;;;;12.27;2.75;;;;;;;;;;5031472;28;20402;-75
2023/04/11 01:11:03;;;;;;;12.90;1.40;;;;;;;;;;5030088;28;20031;-74
2023/04/11 01:13:30;;;;;;;14.65;2.33;;;;;;;;;;5031517;28;20109;-74
2023/04/11 01:15:56;;;;;;;13.63;1.98;;;;;;;;;;5031220;28;20467;-74
2023/04/11 01:18:22;;;;;;;11.20;2.45;;;;;;;;;;5031220;28;20482;-75
2023/04/11 01:20:49;;;;;;;9.63;1.60;;;;;;;;;;5031026;28;20049;-74
2023/04/11 01:23:20;;;;;;;8.88;2.20;;;;;;;;;;5031202;28;20029;-74
2023/04/11 01:25:46;;;;;;;11.07;2.15;;;;;;;;;;5031146;28;20277;-74
2023/04/11 01:28:13;;;;;;;5.65;1.92;;;;;;;;;;5031004;28;20048;-74
2023/04/11 01:30:39;;;;;;;8.05;1.70;;;;;;;;;;5029721;28;20018;-74
2023/04/11 01:33:05;;;;;;;11.80;1.63;;;;;;;;;;5031008;28;20026;-73
2023/04/11 01:35:31;;;;;;;10.55;2.08;;;;;;;;;;5031232;28;20109;-74
2023/04/11 01:37:57;;;;;;;13.75;1.90;;;;;;;;;;5031074;28;20474;-73
2023/04/11 01:40:24;;;;;;;10.40;1.83;;;;;;;;;;5030992;28;20026;-73
2023/04/11 01:42:51;;;;;;;9.05;1.73;;;;;;;;;;5030978;28;20049;-73
2023/04/11 01:45:17;;;;;;;8.88;1.35;;;;;;;;;;5030947;28;20252;-74
2023/04/11 01:47:44;;;;;;;16.08;2.00;;;;;;;;;;5031045;28;20382;-75
2023/04/11 01:50:11;;;;;;;16.75;1.60;;;;;;;;;;5031037;28;20046;-73
2023/04/11 01:52:37;;;;;;;8.57;1.85;;;;;;;;;;5030645;28;20025;-74
2023/04/11 01:55:03;;;;;;;17.33;2.30;;;;;;;;;;5030960;28;20025;-72
2023/04/11 01:57:30;;;;;;;11.30;1.63;;;;;;;;;;5030781;28;20048;-72
2023/04/11 01:59:56;;;;;;;10.85;2.25;;;;;;;;;;5029582;28;20028;-72
2023/04/11 02:02:22;;;;;;;11.30;1.95;;;;;;;;;;5030764;28;20032;-71
2023/04/11 02:04:48;;;;;;;10.77;1.30;;;;;;;;;;5030759;28;20026;-73
2023/04/11 02:07:14;;;;;;;10.35;1.52;;;;;;;;;;5030836;28;20095;-72
2023/04/11 02:09:40;;;;;;;15.95;1.90;;;;;;;;;;5033085;28;20018;-73
2023/04/11 02:12:06;;;;;;;10.77;1.35;;;;;;;;;;5034710;28;20086;-73
2023/04/11 02:14:40;;;;;;;13.65;1.63;;;;;;;;;;5034840;28;20028;-73
2023/04/11 02:17:08;;;;;;;6.60;1.48;;;;;;;;;;5034407;28;20034;-73
2023/04/11 02:19:35;;;;;;;8.38;1.42;;;;;;;;;;5034726;28;20048;-72
2023/04/11 02:22:01;;;;;;;10.48;2.08;;;;;;;;;;5033077;28;20478;-71
2023/04/11 02:24:28;;;;;;;10.05;2.15;;;;;;;;;;5034527;28;20108;-72
2023/04/11 02:26:54;;;;;;;14.30;1.40;;;;;;;;;;5033978;28;20034;-73
2023/04/11 02:29:20;;;;;;;13.82;1.88;;;;;;;;;;5032899;28;20036;-72
2023/04/11 02:31:49;;;;;;;11.75;1.77;;;;;;;;;;5034549;28;20116;-72
2023/04/11 02:34:15;;;;;;;8.77;2.03;;;;;;;;;;5034322;28;20108;-73
2023/04/11 02:36:42;;;;;;;7.50;1.77;;;;;;;;;;5034155;28;20072;-73
2023/04/11 02:39:08;;;;;;;4.22;1.20;;;;;;;;;;5033865;28;20025;-74
2023/04/11 02:41:38;;;;;;;13.57;1.85;;;;;;;;;;5033751;28;20038;-72
2023/04/11 02:44:04;;;;;;;14.25;2.78;;;;;;;;;;5033917;28;20057;-72
2023/04/11 02:46:30;;;;;;;12.43;1.63;;;;;;;;;;5034036;28;20033;-72
2023/04/11 02:48:56;;;;;;;12.02;1.73;;;;;;;;;;5033843;28;20026;-72
2023/04/11 02:51:22;;;;;;;8.40;1.48;;;;;;;;;;5033555;28;20029;-73
2023/04/11 02:53:48;;;;;;;9.75;1.77;;;;;;;;;;5033943;28;20051;-73
2023/04/11 02:56:17;;;;;;;10.02;1.38;;;;;;;;;;5033816;28;20462;-73
2023/04/11 02:58:44;;;;;;;6.47;1.40;;;;;;;;;;5032220;28;20026;-73
2023/04/11 03:01:10;;;;;;;11.38;1.83;;;;;;;;;;5033701;28;20071;-71
2023/04/11 03:03:37;;;;;;;10.13;1.40;;;;;;;;;;5033497;28;20031;-73
2023/04/11 03:06:05;;;;;;;8.38;1.67;;;;;;;;;;5033536;28;20039;-73
2023/04/11 03:08:31;;;;;;;10.75;2.40;;;;;;;;;;5033578;28;20467;-73
2023/04/11 03:10:57;;;;;;;10.38;1.67;;;;;;;;;;5033410;28;20051;-72
2023/04/11 03:13:25;;;;;;;11.68;2.13;;;;;;;;;;5033459;28;20405;-72
2023/04/11 03:15:51;;;;;;;14.02;1.77;;;;;;;;;;5033206;28;20029;-71
2023/04/11 03:18:17;;;;;;;12.10;1.50;;;;;;;;;;5033475;28;20143;-73
2023/04/11 03:20:43;;;;;;;9.32;1.48;;;;;;;;;;5032187;28;20030;-73
2023/04/11 03:23:09;;;;;;;12.27;1.58;;;;;;;;;;5033168;28;20033;-73
2023/04/11 03:25:39;;;;;;;6.20;1.42;;;;;;;;;;5031676;28;20025;-72
2023/04/11 03:28:05;;;;;;;12.80;1.95;;;;;;;;;;5031884;28;20036;-72
2023/04/11 03:30:31;;;;;;;8.23;1.60;;;;;;;;;;5033231;28;20028;-73
2023/04/11 03:32:59;;;;;;;19.40;2.38;;;;;;;;;;5033162;28;20393;-73
2023/04/11 03:35:26;;;;;;;13.95;1.60;;;;;;;;;;5033092;28;20030;-73
2023/04/11 03:37:52;;;;;;;13.23;2.65;;;;;;;;;;5032965;28;20496;-72
2023/04/11 03:40:18;;;;;;;7.47;1.60;;;;;;;;;;5032780;28;20056;-73
2023/04/11 03:42:47;;;;;;;8.57;1.30;;;;;;;;;;5032654;28;20045;-72
2023/04/11 03:45:13;;;;;;;14.23;2.70;;;;;;;;;;5032852;28;20049;-73
2023/04/11 03:47:40;;;;;;;12.68;2.45;;;;;;;;;;5032620;28;20029;-73
2023/04/11 03:50:06;;;;;;;14.30;2.00;;;;;;;;;;5032696;28;20021;-72
2023/04/11 03:52:32;;;;;;;12.75;1.42;;;;;;;;;;5032670;28;20076;-72
2023/04/11 03:54:59;;;;;;;12.50;1.60;;;;;;;;;;5032479;28;20037;-73
2023/04/11 03:57:26;;;;;;;11.55;2.05;;;;;;;;;;5032772;28;20426;-72
2023/04/11 03:59:55;;;;;;;10.68;1.83;;;;;;;;;;5032468;28;20101;-72
2023/04/11 04:02:21;;;;;;;11.27;1.27;;;;;;;;;;5031372;28;20505;-72
2023/04/11 04:04:49;;;;;;;9.43;1.92;;;;;;;;;;5032444;28;20170;-72
2023/04/11 04:07:16;;;;;;;6.82;1.10;;;;;;;;;;5032325;28;20038;-72
2023/04/11 04:09:43;;;;;;;15.70;1.65;;;;;;;;;;5032442;28;20026;-72
2023/04/11 04:12:09;;;;;;;12.15;1.20;;;;;;;;;;5032409;28;20474;-72
2023/04/11 04:14:35;;;;;;;9.52;1.58;;;;;;;;;;5032314;28;20029;-72
2023/04/11 04:17:01;;;;;;;8.20;1.45;;;;;;;;;;5032279;28;20034;-72
2023/04/11 04:19:27;;;;;;;12.88;1.95;;;;;;;;;;5032270;28;20021;-73
2023/04/11 04:21:56;;;;;;;12.38;1.70;;;;;;;;;;5032122;28;20022;-71
2023/04/11 04:24:24;;;;;;;14.18;1.60;;;;;;;;;;5031870;28;20025;-72
2023/04/11 04:26:51;;;;;;;14.68;2.05;;;;;;;;;;5031851;28;20033;-73
2023/04/11 04:29:17;;;;;;;16.20;2.45;;;;;;;;;;5031985;28;20036;-72
2023/04/11 04:31:43;;;;;;;12.80;1.98;;;;;;;;;;5031664;28;20064;-72
2023/04/11 04:34:09;;;;;;;15.50;1.75;;;;;;;;;;5031955;28;20124;-74
2023/04/11 04:36:46;;;;;;;18.35;2.50;;;;;;;;;;5031579;28;20030;-72
2023/04/11 04:39:18;;;;;;;9.43;2.00;;;;;;;;;;5031869;28;20374;-72
2023/04/11 04:41:47;;;;;;;9.00;2.15;;;;;;;;;;5031706;28;20104;-72
2023/04/11 04:44:14;;;;;;;14.32;2.00;;;;;;;;;;5032282;28;20140;-72
2023/04/11 04:46:41;;;;;;;8.98;1.40;;;;;;;;;;5030359;28;20107;-71
2023/04/11 04:49:07;;;;;;;13.90;2.42;;;;;;;;;;5031406;28;20032;-73
2023/04/11 04:51:33;;;;;;;9.50;2.67;;;;;;;;;;5031720;28;20061;-72
2023/04/11 04:53:59;;;;;;;8.88;1.35;;;;;;;;;;5030335;28;20398;-73
2023/04/11 04:56:29;;;;;;;13.43;2.10;;;;;;;;;;5031634;28;20466;-73
2023/04/11 04:58:55;;;;;;;19.05;2.70;;;;;;;;;;5031382;28;20032;-72
2023/04/11 05:01:25;;;;;;;17.27;2.42;;;;;;;;;;5031457;28;20052;-72
2023/04/11 05:03:57;;;;;;;21.08;2.70;;;;;;;;;;5031510;28;20017;-71
2023/04/11 05:06:32;;;;;;;13.98;2.17;;;;;;;;;;5031619;28;20049;-72
2023/04/11 05:08:59;;;;;;;12.30;2.88;;;;;;;;;;5031532;28;20029;-73
2023/04/11 05:11:26;;;;;;;16.05;2.45;;;;;;;;;;5031288;28;20037;-71
2023/04/11 05:13:52;;;;;;;13.98;1.98;;;;;;;;;;5031278;28;20631;-71
2023/04/11 05:16:19;;;;;;;17.05;2.10;;;;;;;;;;5031343;28;20037;-72
2023/04/11 05:18:45;;;;;;;11.25;2.00;;;;;;;;;;5031454;28;20398;-71
2023/04/11 05:21:12;;;;;;;19.63;1.83;;;;;;;;;;5031041;28;20134;-71
2023/04/11 05:23:39;;;;;;;13.05;1.85;;;;;;;;;;5031307;28;20028;-73
2023/04/11 05:26:06;;;;;;;20.63;2.03;;;;;;;;;;5031081;28;20018;-72
2023/04/11 05:28:32;;;;;;;17.77;2.70;;;;;;;;;;5031052;28;20022;-72
2023/04/11 05:30:58;;;;;;;22.30;3.28;;;;;;;;;;5031140;28;20045;-72
2023/04/11 05:33:24;;;;;;;14.35;1.88;;;;;;;;;;5030948;28;20033;-71
2023/04/11 05:35:51;;;;;;;18.92;3.40;;;;;;;;;;5030933;28;20025;-72
2023/04/11 05:38:17;;;;;;;19.25;2.47;;;;;;;;;;5031062;28;20060;-72
2023/04/11 05:40:43;;;;;;;13.70;1.85;;;;;;;;;;5031032;28;20021;-72
2023/04/11 05:43:13;;;;;;;13.40;1.95;;;;;;;;;;5030734;28;20087;-72
2023/04/11 05:45:40;;;;;;;27.25;2.45;;;;;;;;;;5034615;28;20120;-72
2023/04/11 05:48:06;;;;;;;20.10;2.30;;;;;;;;;;5034932;28;20021;-73
2023/04/11 05:50:33;;;;;;;20.58;2.53;;;;;;;;;;5034976;28;20025;-72
2023/04/11 05:52:59;;;;;;;14.15;1.42;;;;;;;;;;5034870;28;20025;-72
2023/04/11 05:55:25;;;;;;;18.05;3.25;;;;;;;;;;5034888;28;20416;-71
2023/04/11 05:57:51;;;;;;;14.45;2.17;;;;;;;;;;5034628;28;20033;-72
2023/04/11 06:00:17;;;;;;;7.28;1.80;;;;;;;;;;5035053;28;20076;-72
2023/04/11 06:02:45;;;;;;;16.10;2.13;;;;;;;;;;5034568;28;20025;-73
2023/04/11 06:05:11;;;;;;;19.17;2.33;;;;;;;;;;5034717;28;20025;-72
2023/04/11 06:07:38;;;;;;;12.77;1.88;;;;;;;;;;5034959;28;20064;-73
2023/04/11 06:10:05;;;;;;;13.18;1.80;;;;;;;;;;5034397;28;20021;-72
2023/04/11 06:12:31;;;;;;;15.65;2.20;;;;;;;;;;5034395;28;20029;-72
2023/04/11 06:14:58;;;;;;;17.77;1.63;;;;;;;;;;5034367;28;20029;-72
2023/04/11 06:17:24;;;;;;;14.75;2.08;;;;;;;;;;5034195;28;20025;-72
2023/04/11 06:19:50;;;;;;;18.90;2.25;;;;;;;;;;5034292;28;20056;-73
2023/04/11 06:22:16;;;;;;;13.50;2.20;;;;;;;;;;5034239;28;20092;-72
2023/04/11 06:24:44;;;;;;;13.88;1.77;;;;;;;;;;5034367;28;20107;-72
2023/04/11 06:27:10;;;;;;;19.73;1.88;;;;;;;;;;5034096;28;20026;-72
2023/04/11 06:29:37;;;;;;;14.80;1.30;;;;;;;;;;5034532;28;20053;-72
2023/04/11 06:32:03;;;;;;;17.92;2.05;;;;;;;;;;5034249;28;20036;-72
2023/04/11 06:34:29;;;;;;;9.85;1.65;;;;;;;;;;5034075;28;20018;-72
2023/04/11 06:36:55;;;;;;;14.18;1.50;;;;;;;;;;5034065;28;20479;-72
2023/04/11 06:39:21;;;;;;;15.02;1.92;;;;;;;;;;5033921;28;20025;-72
2023/04/11 06:41:47;;;;;;;15.80;2.60;;;;;;;;;;5033950;28;20514;-73
2023/04/11 06:44:14;;;;;;;10.65;1.77;;;;;;;;;;5034206;28;20393;-72
2023/04/11 06:46:40;;;;;;;11.70;1.70;;;;;;;;;;5033929;28;20057;-72
2023/04/11 06:49:06;;;;;;;9.48;2.17;;;;;;;;;;5033929;28;20097;-71
2023/04/11 06:51:33;;;;;;;15.27;2.30;;;;;;;;;;5033782;28;20238;-72
2023/04/11 06:53:59;;;;;;;15.57;1.70;;;;;;;;;;5033778;28;20381;-73
2023/04/11 06:56:25;;;;;;;18.98;2.30;;;;;;;;;;5033520;28;20032;-71
2023/04/11 06:58:51;;;;;;;8.80;1.70;;;;;;;;;;5033547;28;20032;-75
2023/04/11 07:01:19;;;;;;;25.65;1.92;;;;;;;;;;5033746;28;20026;-73
2023/04/11 07:03:46;;;;;;;11.20;1.35;;;;;;;;;;5033534;28;20017;-72
2023/04/11 07:06:12;;;;;;;14.15;1.85;;;;;;;;;;5033649;28;20034;-72
2023/04/11 07:08:38;;;;;;;9.13;1.70;;;;;;;;;;5033530;28;20026;-72
2023/04/11 07:11:04;;;;;;;17.15;3.15;;;;;;;;;;5033506;28;20025;-72
2023/04/11 07:13:30;;;;;;;7.22;1.42;;;;;;;;;;5033666;28;20094;-71
2023/04/11 07:15:56;;;;;;;17.77;2.10;;;;;;;;;;5033495;28;20486;-73
2023/04/11 07:18:22;;;;;;;9.95;2.38;;;;;;;;;;5033398;28;20029;-71
2023/04/11 07:20:51;;;;;;;15.32;1.85;;;;;;;;;;5033789;28;20104;-72
2023/04/11 07:23:17;;;;;;;9.88;1.30;;;;;;;;;;5033025;28;20033;-72
2023/04/11 07:25:43;;;;;;;12.45;2.03;;;;;;;;;;5033224;28;20075;-73
2023/04/11 07:28:10;;;;;;;15.52;1.90;;;;;;;;;;5033093;28;20040;-73
2023/04/11 07:30:36;;;;;;;14.98;2.10;;;;;;;;;;5033190;28;20041;-75
2023/04/11 07:33:03;;;;;;;19.83;2.13;;;;;;;;;;5033093;28;20033;-75
2023/04/11 07:35:29;;;;;;;20.38;1.92;;;;;;;;;;5031971;28;20029;-76
2023/04/11 07:37:57;;;;;;;15.27;1.83;;;;;;;;;;5032984;28;20067;-72
2023/04/11 07:40:23;;;;;;;18.05;2.17;;;;;;;;;;5032822;28;20025;-75
2023/04/11 07:42:49;;;;;;;18.77;3.13;;;;;;;;;;5032713;28;20049;-74
2023/04/11 07:45:15;;;;;;;15.40;1.83;;;;;;;;;;5033006;28;20063;-75
2023/04/11 07:47:41;;;;;;;14.07;1.92;;;;;;;;;;5032970;28;20553;-74
2023/04/11 07:50:07;;;;;;;12.32;1.63;;;;;;;;;;5032794;28;20049;-72
2023/04/11 07:52:33;;;;;;;16.05;2.25;;;;;;;;;;5032542;28;20110;-73
2023/04/11 07:54:59;;;;;;;14.90;2.65;;;;;;;;;;5032786;28;20053;-73
2023/04/11 07:57:25;;;;;;;28.90;2.13;;;;;;;;;;5032737;28;20049;-72
2023/04/11 07:59:51;;;;;;;19.58;2.42;;;;;;;;;;5032572;28;20532;-73
2023/04/11 08:02:17;;;;;;;19.35;3.10;;;;;;;;;;5031243;28;20179;-72
2023/04/11 08:04:44;;;;;;;15.52;2.53;;;;;;;;;;5032325;28;20025;-72
2023/04/11 08:07:10;;;;;;;13.80;2.40;;;;;;;;;;5031945;28;20029;-72
2023/04/11 08:09:37;;;;;;;23.20;2.10;;;;;;;;;;5032589;28;20022;-73
2023/04/11 08:12:03;;;;;;;14.52;1.85;;;;;;;;;;5032426;28;20486;-72
2023/04/11 08:14:29;;;;;;;13.93;2.17;;;;;;;;;;5032297;28;20116;-75
2023/04/11 08:16:55;;;;;;;21.20;2.28;;;;;;;;;;5032283;28;20192;-73
2023/04/11 08:19:21;;;;;;;16.95;2.38;;;;;;;;;;5032256;28;20154;-74
2023/04/11 08:21:47;;;;;;;14.93;2.25;;;;;;;;;;5032467;28;20053;-74
2023/04/11 08:24:13;;;;;;;13.00;2.30;;;;;;;;;;5032355;28;20021;-74
2023/04/11 08:26:39;;;;;;;12.80;2.45;;;;;;;;;;5031961;28;20045;-74
2023/04/11 08:29:09;;;;;;;14.75;2.08;;;;;;;;;;5031940;28;20497;-72
2023/04/11 08:31:35;;;;;;;13.38;2.00;;;;;;;;;;5032083;28;20095;-73
2023/04/11 08:34:02;;;;;;;23.15;2.35;;;;;;;;;;5031825;28;20036;-73
2023/04/11 08:36:30;;;;;;;23.55;4.55;;;;;;;;;;5031974;28;20030;-72
2023/04/11 08:38:56;;;;;;;19.25;1.95;;;;;;;;;;5031950;28;20017;-73
2023/04/11 08:41:22;;;;;;;13.48;1.63;;;;;;;;;;5031570;28;20025;-73
2023/04/11 08:43:48;;;;;;;14.32;1.67;;;;;;;;;;5031707;28;20022;-73
2023/04/11 08:46:15;;;;;;;13.10;2.20;;;;;;;;;;5031784;28;20033;-72
2023/04/11 08:48:41;;;;;;;18.30;2.38;;;;;;;;;;5031735;28;20021;-72
2023/04/11 08:51:07;;;;;;;17.25;2.72;;;;;;;;;;5030231;28;20505;-73
2023/04/11 08:53:35;;;;;;;17.45;3.10;;;;;;;;;;5031427;28;20033;-74
2023/04/11 08:56:02;;;;;;;24.40;2.58;;;;;;;;;;5031655;28;20033;-72
2023/04/11 08:58:29;;;;;;;18.10;2.10;;;;;;;;;;5031405;28;20029;-72
2023/04/11 09:00:55;;;;;;;11.32;1.75;;;;;;;;;;5031323;28;20033;-72
2023/04/11 09:03:21;;;;;;;8.93;2.20;;;;;;;;;;5031352;28;20355;-72
2023/04/11 09:05:47;;;;;;;18.45;2.80;;;;;;;;;;5031435;28;20069;-71
2023/04/11 09:08:14;;;;;;;18.73;2.28;;;;;;;;;;5031469;28;20026;-71
2023/04/11 09:10:43;;;;;;;16.73;2.55;;;;;;;;;;5031497;28;20071;-72
2023/04/11 09:13:20;;;;;;;18.15;2.63;;;;;;;;;;5031188;28;20053;-72
2023/04/11 09:15:46;;;;;;;19.58;1.98;;;;;;;;;;5031463;28;20025;-73
2023/04/11 09:18:31;;;;;;;26.67;2.53;;;;;;;;;;5031502;28;20037;-74
2023/04/11 09:21:01;;;;;;;15.35;3.25;;;;;;;;;;5031388;28;20029;-73
2023/04/11 09:23:27;;;;;;;12.75;1.90;;;;;;;;;;5031150;28;20030;-74
2023/04/11 09:25:53;;;;;;;17.38;4.00;;;;;;;;;;5031221;28;20029;-73
2023/04/11 09:28:19;;;;;;;20.17;3.08;;;;;;;;;;5031043;28;20091;-73
2023/04/11 09:30:52;;;;;;;25.58;3.45;;;;;;;;;;5031450;28;20033;-72
2023/04/11 09:33:22;;;;;;;19.08;3.40;;;;;;;;;;5031036;28;20025;-72
2023/04/11 09:35:49;;;;;;;20.63;3.47;;;;;;;;;;5031097;28;20022;-71
2023/04/11 09:38:26;;;;;;;19.48;2.53;;;;;;;;;;5031150;28;20052;-71
2023/04/11 09:40:52;;;;;;;19.08;2.38;;;;;;;;;;5031300;28;20029;-76
2023/04/11 09:43:18;;;;;;;18.50;2.47;;;;;;;;;;5030863;28;20208;-74
2023/04/11 09:45:45;;;;;;;22.33;2.08;;;;;;;;;;5030906;28;20052;-73
2023/04/11 09:48:12;;;;;;;19.83;2.00;;;;;;;;;;5031004;28;20025;-72
2023/04/11 09:50:38;;;;;;;14.82;1.92;;;;;;;;;;5030893;28;20026;-73
2023/04/11 09:53:08;;;;;;;8.35;1.60;;;;;;;;;;5030880;28;20033;-73
2023/04/11 09:55:38;;;;;;;22.00;3.30;;;;;;;;;;5030831;28;20044;-73
2023/04/11 09:58:05;;;;;;;13.45;2.70;;;;;;;;;;5030658;28;20032;-73
2023/04/11 10:00:31;;;;;;;28.85;2.97;;;;;;;;;;5030960;28;20240;-71
2023/04/11 10:02:57;;;;;;;17.67;2.53;;;;;;;;;;5030905;28;20020;-70
2023/04/11 10:05:27;;;;;;;16.58;2.67;;;;;;;;;;5030676;28;20026;-71
2023/04/11 10:07:56;;;;;;;17.63;2.90;;;;;;;;;;5030576;28;20121;-70
2023/04/11 10:10:23;;;;;;;21.92;3.88;;;;;;;;;;5030673;28;20068;-72
2023/04/11 10:12:49;;;;;;;16.75;2.05;;;;;;;;;;5030777;28;20501;-72
2023/04/11 10:15:16;;;;;;;18.10;2.22;;;;;;;;;;5030732;28;20719;-71
2023/04/11 10:17:43;;;;;;;14.82;2.35;;;;;;;;;;5030623;28;20378;-72
2023/04/11 10:20:29;;;;;;;17.58;3.33;;;;;;;;;;5030563;28;20017;-73
2023/04/11 10:22:59;;;;;;;10.63;2.13;;;;;;;;;;5030612;28;20385;-74
2023/04/11 10:25:26;;;;;;;23.15;3.50;;;;;;;;;;5029118;28;20509;-72
2023/04/11 10:27:59;;;;;;;16.85;2.17;;;;;;;;;;5029188;28;20128;-73
2023/04/11 10:30:40;;;;;;;18.85;2.45;;;;;;;;;;5032031;28;20356;-73
2023/04/11 10:33:09;;;;;;;19.63;2.55;;;;;;;;;;5034046;28;20320;-71
2023/04/11 10:35:36;;;;;;;25.27;2.60;;;;;;;;;;5034124;28;20048;-72
2023/04/11 10:38:02;;;;;;;20.27;3.78;;;;;;;;;;5034188;28;20029;-73
2023/04/11 10:40:28;;;;;;;15.20;2.65;;;;;;;;;;5034003;28;20026;-73
2023/04/11 10:42:54;;;;;;;17.73;2.53;;;;;;;;;;5033778;28;20107;-72
2023/04/11 10:45:26;;;;;;;20.95;2.33;;;;;;;;;;5033890;28;20029;-72
2023/04/11 10:47:56;;;;;;;19.88;2.65;;;;;;;;;;5034022;28;20052;-73
2023/04/11 10:50:25;;;;;;;21.92;2.22;;;;;;;;;;5033743;28;20033;-73
2023/04/11 10:53:02;;;;;;;27.02;3.15;;;;;;;;;;5033697;28;20108;-73
2023/04/11 10:55:29;;;;;;;15.73;1.98;;;;;;;;;;5033764;28;20108;-73
2023/04/11 10:58:12;;;;;;;18.35;2.55;;;;;;;;;;5033474;28;20029;-72
2023/04/11 11:00:51;;;;;;;18.13;2.63;;;;;;;;;;5032273;28;20025;-73
2023/04/11 11:03:28;;;;;;;18.10;2.00;;;;;;;;;;5033537;28;20029;-72
2023/04/11 11:06:01;;;;;;;25.13;2.97;;;;;;;;;;5033416;28;20486;-73
2023/04/11 11:08:29;;;;;;;19.95;2.78;;;;;;;;;;5033579;28;20034;-73
2023/04/11 11:10:59;;;;;;;19.50;2.10;;;;;;;;;;5033432;28;20100;-72
2023/04/11 11:13:37;;;;;;;16.38;2.28;;;;;;;;;;5033524;28;20088;-74
2023/04/11 11:16:03;;;;;;;21.92;2.28;;;;;;;;;;5033184;28;20044;-73
2023/04/11 11:18:30;;;;;;;17.50;2.17;;;;;;;;;;5033225;28;20025;-73
2023/04/11 11:20:56;;;;;;;21.10;2.13;;;;;;;;;;5033569;28;20044;-74
2023/04/11 11:23:22;;;;;;;14.40;2.30;;;;;;;;;;5033486;28;20048;-74
2023/04/11 11:25:58;;;;;;;15.10;2.28;;;;;;;;;;5033441;28;20466;-73
2023/04/11 11:28:25;;;;;;;14.75;2.03;;;;;;;;;;5033072;28;20030;-73
2023/04/11 11:30:55;;;;;;;22.58;2.50;;;;;;;;;;5033032;28;20139;-73
2023/04/11 11:33:28;;;;;;;13.43;1.70;;;;;;;;;;5033160;28;20030;-74
2023/04/11 11:35:58;;;;;;;17.13;2.97;;;;;;;;;;5033010;28;20080;-72
2023/04/11 11:38:25;;;;;;;10.07;1.80;;;;;;;;;;5033045;28;20385;-73
2023/04/11 11:40:52;;;;;;;25.50;3.35;;;;;;;;;;5032592;28;20022;-73
2023/04/11 11:43:18;;;;;;;17.40;2.30;;;;;;;;;;5032053;28;20405;-74
2023/04/11 11:45:45;;;;;;;18.55;2.35;;;;;;;;;;5032724;28;20059;-73
2023/04/11 11:48:21;;;;;;;15.77;2.10;;;;;;;;;;5032720;28;20037;-73
2023/04/11 11:50:54;;;;;;;23.42;2.63;;;;;;;;;;5032861;28;20060;-73
2023/04/11 11:53:21;;;;;;;22.38;2.33;;;;;;;;;;5032794;28;20394;-73
2023/04/11 11:55:47;;;;;;;21.88;2.45;;;;;;;;;;5032507;28;20022;-72
2023/04/11 11:58:13;;;;;;;17.92;2.58;;;;;;;;;;5032243;28;20442;-72
2023/04/11 12:00:40;;;;;;;15.52;2.50;;;;;;;;;;5032465;28;20083;-72
2023/04/11 12:03:08;;;;;;;14.70;2.42;;;;;;;;;;5032279;28;20029;-73
2023/04/11 12:05:35;;;;;;;22.27;2.40;;;;;;;;;;5032623;28;20589;-74
2023/04/11 12:08:06;;;;;;;19.45;2.55;;;;;;;;;;5032309;28;20029;-73
2023/04/11 12:10:39;;;;;;;19.08;3.15;;;;;;;;;;5032428;28;20028;-72
2023/04/11 12:13:12;;;;;;;28.25;2.55;;;;;;;;;;5032083;28;20025;-73
2023/04/11 12:15:38;;;;;;;15.95;2.42;;;;;;;;;;5032296;28;20446;-72
2023/04/11 12:18:05;;;;;;;18.25;2.13;;;;;;;;;;5032103;28;20049;-73
2023/04/11 12:20:32;;;;;;;19.00;2.67;;;;;;;;;;5032046;28;20370;-72
2023/04/11 12:22:58;;;;;;;18.92;2.33;;;;;;;;;;5032072;28;20037;-73
2023/04/11 12:25:27;;;;;;;16.48;3.15;;;;;;;;;;5031839;28;20032;-72
2023/04/11 12:27:53;;;;;;;23.10;3.65;;;;;;;;;;5031832;28;20072;-72
2023/04/11 12:30:19;;;;;;;20.17;3.08;;;;;;;;;;5031868;28;20395;-72
2023/04/11 12:32:45;;;;;;;16.95;2.40;;;;;;;;;;5031670;28;20393;-73
2023/04/11 12:35:12;;;;;;;28.00;4.32;;;;;;;;;;5032038;28;20474;-71
2023/04/11 12:37:38;;;;;;;32.08;3.15;;;;;;;;;;5030453;28;20428;-74
2023/04/11 12:40:08;;;;;;;23.55;3.33;;;;;;;;;;5031742;28;20048;-71
2023/04/11 12:42:34;;;;;;;20.05;3.17;;;;;;;;;;5031750;28;20053;-72
2023/04/11 12:45:00;;;;;;;16.45;2.50;;;;;;;;;;5031552;28;20038;-73
2023/04/11 12:47:26;;;;;;;19.95;2.58;;;;;;;;;;5031609;28;20029;-72
2023/04/11 12:49:52;;;;;;;21.00;2.40;;;;;;;;;;5031679;28;20028;-72
2023/04/11 12:52:18;;;;;;;19.90;2.70;;;;;;;;;;5031251;28;20466;-72
2023/04/11 12:54:44;;;;;;;30.50;3.72;;;;;;;;;;5031660;28;20045;-70
2023/04/11 12:57:11;;;;;;;36.15;3.53;;;;;;;;;;5031533;28;20037;-72
2023/04/11 12:59:37;;;;;;;28.23;4.07;;;;;;;;;;5031484;28;20032;-72
2023/04/11 13:02:03;;;;;;;26.75;3.17;;;;;;;;;;5031546;28;20021;-73
2023/04/11 13:04:29;;;;;;;20.17;2.67;;;;;;;;;;5031412;28;20026;-73
2023/04/11 13:06:59;;;;;;;22.10;2.47;;;;;;;;;;5031286;28;20496;-73
2023/04/11 13:09:28;;;;;;;21.92;2.75;;;;;;;;;;5031420;28;20128;-72
2023/04/11 13:11:55;;;;;;;19.83;2.80;;;;;;;;;;5031082;28;20441;-73
2023/04/11 13:14:21;;;;;;;22.13;2.80;;;;;;;;;;5031359;28;20052;-73
2023/04/11 13:16:47;;;;;;;27.20;3.97;;;;;;;;;;5031299;28;20049;-73
2023/04/11 13:19:13;;;;;;;25.25;3.28;;;;;;;;;;5031165;28;20021;-73
2023/04/11 13:21:39;;;;;;;23.83;3.15;;;;;;;;;;5030207;28;20481;-73
2023/04/11 13:24:06;;;;;;;23.35;2.88;;;;;;;;;;5031627;28;20378;-72
2023/04/11 13:26:32;;;;;;;23.27;2.45;;;;;;;;;;5029619;28;20452;-72
2023/04/11 13:28:58;;;;;;;28.00;4.60;;;;;;;;;;5029744;28;20025;-72
2023/04/11 13:31:25;;;;;;;26.27;3.35;;;;;;;;;;5030970;28;20048;-73
2023/04/11 13:34:01;;;;;;;25.27;3.17;;;;;;;;;;5031040;28;20018;-73
2023/04/11 13:36:27;;;;;;;23.75;2.83;;;;;;;;;;5031157;28;20025;-72
2023/04/11 13:38:53;;;;;;;16.73;2.75;;;;;;;;;;5031040;28;20109;-73
2023/04/11 13:41:20;;;;;;;27.30;3.55;;;;;;;;;;5029620;28;20458;-71
2023/04/11 13:43:46;;;;;;;17.95;2.60;;;;;;;;;;5031019;28;20033;-72
2023/04/11 13:46:12;;;;;;;17.40;3.25;;;;;;;;;;5031356;28;20059;-72
2023/04/11 13:48:38;;;;;;;19.35;3.40;;;;;;;;;;5030853;28;20466;-73
2023/04/11 13:51:04;;;;;;;21.08;3.30;;;;;;;;;;5031087;28;20105;-72
2023/04/11 13:53:30;;;;;;;20.30;2.55;;;;;;;;;;5030866;28;20109;-72
2023/04/11 13:55:56;;;;;;;23.67;3.53;;;;;;;;;;5031050;28;20056;-73
2023/04/11 13:58:22;;;;;;;19.88;2.63;;;;;;;;;;5030817;28;20030;-72
2023/04/11 14:00:49;;;;;;;22.52;2.70;;;;;;;;;;5030839;28;20497;-72
2023/04/11 14:03:15;;;;;;;21.80;3.10;;;;;;;;;;5030741;28;20053;-72
2023/04/11 14:05:41;;;;;;;19.08;3.13;;;;;;;;;;5032913;28;20482;-72
2023/04/11 14:08:07;;;;;;;25.67;3.95;;;;;;;;;;5034581;28;20497;-72
2023/04/11 14:10:33;;;;;;;23.65;2.88;;;;;;;;;;5034548;28;20053;-72
2023/04/11 14:13:01;;;;;;;18.83;2.05;;;;;;;;;;5034635;28;20057;-72
2023/04/11 14:15:27;;;;;;;11.85;2.10;;;;;;;;;;5034408;28;20024;-73
2023/04/11 14:17:53;;;;;;;15.82;1.90;;;;;;;;;;5034536;28;20099;-72
2023/04/11 14:20:19;;;;;;;12.95;2.28;;;;;;;;;;5033149;28;20470;-72
2023/04/11 14:22:45;;;;;;;20.73;3.25;;;;;;;;;;5034642;28;20160;-71
2023/04/11 14:25:14;;;;;;;17.48;2.20;;;;;;;;;;5034370;28;20025;-73
2023/04/11 14:27:40;;;;;;;10.30;1.95;;;;;;;;;;5034644;28;20052;-72
2023/04/11 14:30:11;;;;;;;10.60;1.67;;;;;;;;;;5034359;28;20104;-71